Anderson, OH

4:08 AM EDT on September 19, 2014 (GMT -0400)
Mount Lookout | Change Station
CLOSE
Current Station
Personal Weather Station
Location: Cincinnati, OH
Elevation: 650 ft
Nearby Weather Stations

Elev 650 ft 39.12 °N, 84.42 °W | Updated 8 minutes ago

Clear
Clear
53.7 °F
Feels Like 53.7 °F
N
0.0
Wind Variable Wind from East
Gusts 0.0 mph

Today
High -- | Low -- °F
--% Chance of Precip.
Yesterday
High -- | Low -- °F
Precip. -- in
7:22 AM 7:39 PM
Waning Crescent, 21% visible
Pressure 30.17 in
Visibility 2.0 miles
Clouds Few 200 ft
Dew Point 50 °F
Humidity 86%
Rainfall 0.00 in
Snow Depth Not available.
UV 0 out of 12
Pollen 4.60 out of 12
Ozone Good
PM2.5 Moderate
Flu Activity Not available.
SPECI KLUK 190805Z AUTO 00000KT 2SM BR FEW002 08/07 A3017 RMK AO2 VIS 1V5 T00780072

More Conditions Fewer Conditions

Pressure 30.17 in
Visibility 2.0 miles
Clouds Few 200 ft
Dew Point 50 °F
Humidity 86%
Rainfall 0.00 in
Snow Depth Not available.
UV 0 out of 12
Pollen 4.60 out of 12
Ozone Good
PM2.5 Moderate
Flu Activity Not available.
SPECI KLUK 190805Z AUTO 00000KT 2SM BR FEW002 08/07 A3017 RMK AO2 VIS 1V5 T00780072

More Conditions Fewer Conditions

10-Day Weather Forecast

Almanac

Astronomy

Sep. 19, 2014 Rise Set
Actual Time 7:22 AM EDT 7:39 PM EDT
Civil Twilight 6:55 AM EDT 8:05 PM EDT
Nautical Twilight 6:24 AM EDT 8:37 PM EDT
Astronomical Twilight 5:52 AM EDT 9:09 PM EDT
Moon 3:08 AM EDT 5:06 PM EDT
Length of Visible Light 13h 10m
Length of Day
12h 16m
Tomorrow will be 2m 32s shorter.
Waning Crescent, 21% of the Moon is Illuminated
Today
Waning Crescent
Sep 24
New
Oct 1
First Quarter
Oct 8
Full
Oct 15
Last Quarter

Today's Extremes

State Highs State Lows

Community

WunderPhotos

Upload Photos

1,754,578 photos uploaded!

Nearby

Air Quality

  Air Quality AQ Index Pollutant
Yesterday Good
PM10
Yesterday Good
OZONE
Current Moderate
PM2.5
Current Good
OZONE
Friday Moderate
PM2.5
Friday Good
OZONE

Snow Depth

Station Depth Elevation
No new snow has been reported.

Earthquake Activity

City Distance Mag. Time & Date
No recent earthquake activity has been reported nearby.
Minimum magnitude displayed is 2.5.

Coastal Water Temperatures

Place Temperature
No Stations Reporting

Nearby Weather Stations